Terminal Aerodrome Forecast
Issued by NWS

Home | Current Version | Previous Version | Graphics & Text | Print | Product List | Glossary On
Versions: 1 2 3 4 5 6 7 8 9 10 11 12 13 14 15 16
000
FTUS43 KDVN 292335
TAFBRL
TAF
KBRL 292335Z 3000/3024 28005KT P6SM SCT035
     FM300800 34005KT 5SM BR BKN025
     FM301000 36003KT 1SM BR BKN005
     FM301500 36005KT 6SM HZ SCT009 BKN020
     FM302000 02007KT P6SM BKN035=

USA.gov is the U.S. government's official web portal to all federal, state and local government web resources and services.